sensor_id;sensor_type;location;lat;lon;timestamp;pressure;altitude;pressure_sealevel;temperature;humidity
5883;BME280;2967;51.488;6.618;2023-07-16T00:01:27;100635.56;;;21.03;100.00
5883;BME280;2967;51.488;6.618;2023-07-16T00:06:50;100662.00;;;21.00;100.00
5883;BME280;2967;51.488;6.618;2023-07-16T00:12:15;100619.94;;;20.99;100.00
5883;BME280;2967;51.488;6.618;2023-07-16T00:17:38;100678.13;;;20.92;100.00
5883;BME280;2967;51.488;6.618;2023-07-16T00:23:01;100685.84;;;21.03;100.00
5883;BME280;2967;51.488;6.618;2023-07-16T00:28:26;100689.88;;;21.15;100.00
5883;BME280;2967;51.488;6.618;2023-07-16T00:33:49;100666.69;;;20.90;100.00
5883;BME280;2967;51.488;6.618;2023-07-16T00:39:12;100668.69;;;21.04;100.00
5883;BME280;2967;51.488;6.618;2023-07-16T00:44:36;100639.09;;;20.72;100.00
5883;BME280;2967;51.488;6.618;2023-07-16T00:49:59;100656.44;;;20.85;100.00
5883;BME280;2967;51.488;6.618;2023-07-16T00:55:23;100678.91;;;20.84;100.00
5883;BME280;2967;51.488;6.618;2023-07-16T01:00:47;100642.75;;;20.47;100.00
5883;BME280;2967;51.488;6.618;2023-07-16T01:06:14;100654.34;;;20.47;100.00
5883;BME280;2967;51.488;6.618;2023-07-16T01:11:39;100677.06;;;20.61;100.00
5883;BME280;2967;51.488;6.618;2023-07-16T01:17:05;100682.38;;;20.37;100.00
5883;BME280;2967;51.488;6.618;2023-07-16T01:22:48;100667.03;;;20.21;100.00
5883;BME280;2967;51.488;6.618;2023-07-16T01:28:27;100679.72;;;20.53;100.00
5883;BME280;2967;51.488;6.618;2023-07-16T01:33:59;100685.44;;;20.50;100.00
5883;BME280;2967;51.488;6.618;2023-07-16T01:39:24;100660.00;;;20.28;100.00
5883;BME280;2967;51.488;6.618;2023-07-16T01:44:49;100692.59;;;20.25;100.00
5883;BME280;2967;51.488;6.618;2023-07-16T01:50:14;100699.47;;;20.28;100.00
5883;BME280;2967;51.488;6.618;2023-07-16T01:55:37;100712.78;;;20.37;100.00
5883;BME280;2967;51.488;6.618;2023-07-16T02:01:00;100683.94;;;20.06;100.00
5883;BME280;2967;51.488;6.618;2023-07-16T02:06:25;100707.16;;;19.89;100.00
5883;BME280;2967;51.488;6.618;2023-07-16T02:11:48;100682.66;;;19.92;100.00
5883;BME280;2967;51.488;6.618;2023-07-16T02:17:11;100695.84;;;19.78;100.00
5883;BME280;2967;51.488;6.618;2023-07-16T02:22:37;100642.28;;;19.35;100.00
5883;BME280;2967;51.488;6.618;2023-07-16T02:28:00;100711.75;;;19.71;100.00
5883;BME280;2967;51.488;6.618;2023-07-16T02:33:25;100727.16;;;19.95;100.00
5883;BME280;2967;51.488;6.618;2023-07-16T02:38:49;100722.41;;;19.89;100.00
5883;BME280;2967;51.488;6.618;2023-07-16T02:44:12;100738.44;;;19.98;100.00
5883;BME280;2967;51.488;6.618;2023-07-16T02:49:36;100726.69;;;19.99;100.00
5883;BME280;2967;51.488;6.618;2023-07-16T02:55:01;100743.31;;;20.03;100.00
5883;BME280;2967;51.488;6.618;2023-07-16T03:00:24;100742.78;;;19.99;100.00
5883;BME280;2967;51.488;6.618;2023-07-16T03:05:47;100733.19;;;19.63;100.00
5883;BME280;2967;51.488;6.618;2023-07-16T03:11:13;100738.84;;;19.86;100.00
5883;BME280;2967;51.488;6.618;2023-07-16T03:16:36;100721.50;;;19.47;100.00
5883;BME280;2967;51.488;6.618;2023-07-16T03:21:59;100747.06;;;19.59;100.00
5883;BME280;2967;51.488;6.618;2023-07-16T03:27:24;100741.56;;;19.60;100.00
5883;BME280;2967;51.488;6.618;2023-07-16T03:32:52;100755.56;;;19.46;100.00
5883;BME280;2967;51.488;6.618;2023-07-16T03:38:19;100761.22;;;19.69;100.00
5883;BME280;2967;51.488;6.618;2023-07-16T03:43:44;100781.63;;;19.36;100.00
5883;BME280;2967;51.488;6.618;2023-07-16T03:49:12;100788.59;;;18.94;100.00
5883;BME280;2967;51.488;6.618;2023-07-16T03:54:36;100775.66;;;18.90;100.00
5883;BME280;2967;51.488;6.618;2023-07-16T04:00:01;100813.59;;;19.30;100.00
5883;BME280;2967;51.488;6.618;2023-07-16T04:05:34;100828.50;;;19.15;100.00
5883;BME280;2967;51.488;6.618;2023-07-16T04:10:58;100836.78;;;19.04;100.00
5883;BME280;2967;51.488;6.618;2023-07-16T04:16:22;100840.63;;;19.19;100.00
5883;BME280;2967;51.488;6.618;2023-07-16T04:21:45;100847.03;;;19.35;100.00
5883;BME280;2967;51.488;6.618;2023-07-16T04:27:10;100845.56;;;19.41;100.00
5883;BME280;2967;51.488;6.618;2023-07-16T04:32:35;100833.16;;;19.40;100.00
5883;BME280;2967;51.488;6.618;2023-07-16T04:37:58;100863.56;;;19.48;100.00
5883;BME280;2967;51.488;6.618;2023-07-16T04:43:21;100860.50;;;19.61;100.00
5883;BME280;2967;51.488;6.618;2023-07-16T04:48:45;100865.41;;;19.30;100.00
5883;BME280;2967;51.488;6.618;2023-07-16T04:54:09;100852.97;;;19.29;100.00
5883;BME280;2967;51.488;6.618;2023-07-16T04:59:32;100880.03;;;19.36;100.00
5883;BME280;2967;51.488;6.618;2023-07-16T05:04:56;100864.56;;;19.47;100.00
5883;BME280;2967;51.488;6.618;2023-07-16T05:10:19;100861.81;;;19.22;100.00
5883;BME280;2967;51.488;6.618;2023-07-16T05:15:43;100887.63;;;19.58;100.00
5883;BME280;2967;51.488;6.618;2023-07-16T05:21:08;100887.25;;;19.53;100.00
5883;BME280;2967;51.488;6.618;2023-07-16T05:26:31;100904.63;;;19.84;100.00
5883;BME280;2967;51.488;6.618;2023-07-16T05:31:54;100900.91;;;20.02;100.00
5883;BME280;2967;51.488;6.618;2023-07-16T05:37:19;100903.09;;;19.81;100.00
5883;BME280;2967;51.488;6.618;2023-07-16T05:42:42;100902.63;;;19.86;100.00
5883;BME280;2967;51.488;6.618;2023-07-16T05:48:05;100908.16;;;19.67;100.00
5883;BME280;2967;51.488;6.618;2023-07-16T05:53:30;100914.69;;;19.82;100.00
5883;BME280;2967;51.488;6.618;2023-07-16T05:58:53;100921.81;;;20.08;100.00
5883;BME280;2967;51.488;6.618;2023-07-16T06:04:16;100932.38;;;19.92;100.00
5883;BME280;2967;51.488;6.618;2023-07-16T06:09:40;100915.09;;;20.04;100.00
5883;BME280;2967;51.488;6.618;2023-07-16T06:15:03;100926.34;;;20.08;100.00
5883;BME280;2967;51.488;6.618;2023-07-16T06:20:27;100904.97;;;19.81;100.00
5883;BME280;2967;51.488;6.618;2023-07-16T06:25:55;100919.97;;;19.91;100.00
5883;BME280;2967;51.488;6.618;2023-07-16T06:31:18;100933.59;;;19.98;100.00
5883;BME280;2967;51.488;6.618;2023-07-16T06:36:42;100936.25;;;20.07;100.00
5883;BME280;2967;51.488;6.618;2023-07-16T06:42:06;100962.31;;;20.15;100.00
5883;BME280;2967;51.488;6.618;2023-07-16T06:47:29;100958.59;;;20.33;100.00
5883;BME280;2967;51.488;6.618;2023-07-16T06:52:52;100953.00;;;20.27;100.00
5883;BME280;2967;51.488;6.618;2023-07-16T06:58:17;100965.03;;;20.40;100.00
5883;BME280;2967;51.488;6.618;2023-07-16T07:03:40;100964.63;;;20.27;99.32
5883;BME280;2967;51.488;6.618;2023-07-16T07:09:03;100969.66;;;20.30;97.93
5883;BME280;2967;51.488;6.618;2023-07-16T07:14:28;100976.91;;;20.55;97.91
5883;BME280;2967;51.488;6.618;2023-07-16T07:19:52;100979.59;;;20.30;98.26
5883;BME280;2967;51.488;6.618;2023-07-16T07:25:15;100981.13;;;20.15;98.56
5883;BME280;2967;51.488;6.618;2023-07-16T07:30:39;100983.63;;;19.99;98.83
5883;BME280;2967;51.488;6.618;2023-07-16T07:36:03;100983.28;;;20.11;98.00
5883;BME280;2967;51.488;6.618;2023-07-16T07:41:26;100985.25;;;20.27;98.63
5883;BME280;2967;51.488;6.618;2023-07-16T07:46:50;100987.59;;;20.47;97.49
5883;BME280;2967;51.488;6.618;2023-07-16T07:52:13;100994.00;;;20.54;97.93
5883;BME280;2967;51.488;6.618;2023-07-16T07:57:36;100997.66;;;20.45;97.81
5883;BME280;2967;51.488;6.618;2023-07-16T08:03:01;100979.47;;;20.65;99.94
5883;BME280;2967;51.488;6.618;2023-07-16T08:08:24;100996.00;;;21.03;100.00
5883;BME280;2967;51.488;6.618;2023-07-16T08:13:47;100988.88;;;21.28;98.18
5883;BME280;2967;51.488;6.618;2023-07-16T08:19:12;100988.81;;;21.45;95.48
5883;BME280;2967;51.488;6.618;2023-07-16T08:24:35;100974.91;;;21.66;95.43
5883;BME280;2967;51.488;6.618;2023-07-16T08:29:58;100990.59;;;21.78;92.55
5883;BME280;2967;51.488;6.618;2023-07-16T08:35:23;101005.19;;;21.60;90.98
5883;BME280;2967;51.488;6.618;2023-07-16T08:40:47;100997.19;;;21.42;92.17
5883;BME280;2967;51.488;6.618;2023-07-16T08:46:11;101012.09;;;21.29;91.76
5883;BME280;2967;51.488;6.618;2023-07-16T08:51:37;101006.41;;;21.32;92.09
5883;BME280;2967;51.488;6.618;2023-07-16T08:57:02;100985.41;;;21.35;93.48
5883;BME280;2967;51.488;6.618;2023-07-16T09:02:25;101023.03;;;21.68;89.28
5883;BME280;2967;51.488;6.618;2023-07-16T09:07:50;101018.66;;;21.67;90.58
5883;BME280;2967;51.488;6.618;2023-07-16T09:13:18;101024.66;;;21.54;89.57
5883;BME280;2967;51.488;6.618;2023-07-16T09:18:41;101024.22;;;21.66;90.78
5883;BME280;2967;51.488;6.618;2023-07-16T09:24:08;100998.06;;;21.58;91.32
5883;BME280;2967;51.488;6.618;2023-07-16T09:29:31;101025.28;;;21.89;91.13
5883;BME280;2967;51.488;6.618;2023-07-16T09:34:54;101005.91;;;21.85;87.62
5883;BME280;2967;51.488;6.618;2023-07-16T09:40:19;101027.09;;;21.73;88.60
5883;BME280;2967;51.488;6.618;2023-07-16T09:45:44;101041.47;;;21.97;89.52
5883;BME280;2967;51.488;6.618;2023-07-16T09:51:11;101038.94;;;22.03;88.30
5883;BME280;2967;51.488;6.618;2023-07-16T09:56:39;101055.47;;;22.16;86.15
5883;BME280;2967;51.488;6.618;2023-07-16T10:02:05;101055.13;;;22.19;87.04
5883;BME280;2967;51.488;6.618;2023-07-16T10:07:36;101040.66;;;22.28;86.52
5883;BME280;2967;51.488;6.618;2023-07-16T10:13:02;101060.69;;;22.34;86.90
5883;BME280;2967;51.488;6.618;2023-07-16T10:18:26;101063.91;;;22.21;88.08
5883;BME280;2967;51.488;6.618;2023-07-16T10:23:57;101065.41;;;22.24;87.16
5883;BME280;2967;51.488;6.618;2023-07-16T10:29:22;101072.19;;;22.36;87.32
5883;BME280;2967;51.488;6.618;2023-07-16T10:34:47;101057.16;;;22.33;86.38
5883;BME280;2967;51.488;6.618;2023-07-16T10:40:14;101050.97;;;22.41;85.71
5883;BME280;2967;51.488;6.618;2023-07-16T10:45:40;101030.56;;;22.30;86.98
5883;BME280;2967;51.488;6.618;2023-07-16T10:51:04;101075.25;;;22.65;87.61
5883;BME280;2967;51.488;6.618;2023-07-16T10:56:27;101082.81;;;22.77;86.71
5883;BME280;2967;51.488;6.618;2023-07-16T11:01:51;101077.56;;;22.84;86.40
5883;BME280;2967;51.488;6.618;2023-07-16T11:07:15;101073.69;;;22.94;87.10
5883;BME280;2967;51.488;6.618;2023-07-16T11:12:38;101086.31;;;23.26;88.21
5883;BME280;2967;51.488;6.618;2023-07-16T11:18:03;101085.59;;;23.24;85.79
5883;BME280;2967;51.488;6.618;2023-07-16T11:23:27;101081.78;;;22.94;83.58
5883;BME280;2967;51.488;6.618;2023-07-16T11:28:51;101069.16;;;22.87;82.56
5883;BME280;2967;51.488;6.618;2023-07-16T11:34:15;101088.34;;;23.00;83.21
5883;BME280;2967;51.488;6.618;2023-07-16T11:39:38;101092.22;;;22.97;85.56
5883;BME280;2967;51.488;6.618;2023-07-16T11:45:02;101067.78;;;22.99;83.67
5883;BME280;2967;51.488;6.618;2023-07-16T11:50:27;101116.44;;;23.37;82.70
5883;BME280;2967;51.488;6.618;2023-07-16T11:55:51;101105.50;;;23.31;83.66
5883;BME280;2967;51.488;6.618;2023-07-16T12:01:14;101126.75;;;23.34;83.47
5883;BME280;2967;51.488;6.618;2023-07-16T12:06:39;101125.25;;;23.31;83.84
5883;BME280;2967;51.488;6.618;2023-07-16T12:12:06;101078.91;;;22.96;82.00
5883;BME280;2967;51.488;6.618;2023-07-16T12:17:31;101123.75;;;23.29;83.38
5883;BME280;2967;51.488;6.618;2023-07-16T12:22:58;101103.81;;;23.38;82.58
5883;BME280;2967;51.488;6.618;2023-07-16T12:28:23;101096.63;;;23.14;83.68
5883;BME280;2967;51.488;6.618;2023-07-16T12:33:53;101142.59;;;23.45;83.78
5883;BME280;2967;51.488;6.618;2023-07-16T12:39:21;101154.00;;;23.63;81.72
5883;BME280;2967;51.488;6.618;2023-07-16T12:44:45;101082.22;;;23.30;81.61
5883;BME280;2967;51.488;6.618;2023-07-16T12:50:09;101156.69;;;23.71;82.34
5883;BME280;2967;51.488;6.618;2023-07-16T12:55:34;101145.84;;;23.79;80.54
5883;BME280;2967;51.488;6.618;2023-07-16T13:00:57;101159.88;;;23.82;77.74
5883;BME280;2967;51.488;6.618;2023-07-16T13:06:22;101129.75;;;24.01;78.02
5883;BME280;2967;51.488;6.618;2023-07-16T13:11:47;101145.00;;;24.47;77.53
5883;BME280;2967;51.488;6.618;2023-07-16T13:17:10;101150.88;;;24.59;75.04
5883;BME280;2967;51.488;6.618;2023-07-16T13:22:35;101134.91;;;24.41;73.56
5883;BME280;2967;51.488;6.618;2023-07-16T13:28:03;101111.78;;;24.61;72.20
5883;BME280;2967;51.488;6.618;2023-07-16T13:33:26;101136.38;;;24.74;70.26
5883;BME280;2967;51.488;6.618;2023-07-16T13:38:50;101143.69;;;24.88;70.52
5883;BME280;2967;51.488;6.618;2023-07-16T13:44:14;101105.41;;;24.54;70.45
5883;BME280;2967;51.488;6.618;2023-07-16T13:49:38;101141.88;;;25.03;69.46
5883;BME280;2967;51.488;6.618;2023-07-16T13:55:01;101141.84;;;25.40;67.43
5883;BME280;2967;51.488;6.618;2023-07-16T14:00:27;101136.63;;;25.53;68.93
5883;BME280;2967;51.488;6.618;2023-07-16T14:05:51;101081.78;;;25.51;66.74
5883;BME280;2967;51.488;6.618;2023-07-16T14:11:27;101086.59;;;25.70;66.34
5883;BME280;2967;51.488;6.618;2023-07-16T14:16:55;101144.31;;;25.93;63.79
5883;BME280;2967;51.488;6.618;2023-07-16T14:22:20;101146.69;;;26.02;62.33
5883;BME280;2967;51.488;6.618;2023-07-16T14:27:46;101143.72;;;25.68;63.99
5883;BME280;2967;51.488;6.618;2023-07-16T14:33:13;101144.19;;;25.43;64.97
5883;BME280;2967;51.488;6.618;2023-07-16T14:38:39;101124.94;;;25.52;65.39
5883;BME280;2967;51.488;6.618;2023-07-16T14:44:06;101116.25;;;25.42;64.78
5883;BME280;2967;51.488;6.618;2023-07-16T14:49:31;101145.50;;;25.47;67.12
5883;BME280;2967;51.488;6.618;2023-07-16T14:54:56;101138.56;;;25.59;67.59
5883;BME280;2967;51.488;6.618;2023-07-16T15:00:21;100997.13;;;24.40;66.27
5883;BME280;2967;51.488;6.618;2023-07-16T15:05:46;101139.88;;;25.34;65.93
5883;BME280;2967;51.488;6.618;2023-07-16T15:11:12;101105.31;;;24.84;66.11
5883;BME280;2967;51.488;6.618;2023-07-16T15:16:36;101140.75;;;24.75;66.17
5883;BME280;2967;51.488;6.618;2023-07-16T15:22:06;101117.13;;;24.69;65.71
5883;BME280;2967;51.488;6.618;2023-07-16T15:27:31;101151.63;;;24.67;66.30
5883;BME280;2967;51.488;6.618;2023-07-16T15:32:54;101123.50;;;24.54;67.26
5883;BME280;2967;51.488;6.618;2023-07-16T15:38:19;101142.75;;;24.59;68.51
5883;BME280;2967;51.488;6.618;2023-07-16T15:43:42;101098.13;;;24.32;67.30
5883;BME280;2967;51.488;6.618;2023-07-16T15:49:08;101107.13;;;24.47;67.13
5883;BME280;2967;51.488;6.618;2023-07-16T15:54:53;101112.50;;;24.55;67.94
5883;BME280;2967;51.488;6.618;2023-07-16T16:00:20;101111.81;;;24.53;66.57
5883;BME280;2967;51.488;6.618;2023-07-16T16:05:43;101109.53;;;24.42;67.03
5883;BME280;2967;51.488;6.618;2023-07-16T16:11:10;101080.91;;;24.25;67.66
5883;BME280;2967;51.488;6.618;2023-07-16T16:16:38;101130.44;;;24.48;67.49
5883;BME280;2967;51.488;6.618;2023-07-16T16:22:18;101059.94;;;24.27;67.76
5883;BME280;2967;51.488;6.618;2023-07-16T16:27:44;101113.06;;;24.43;67.09
5883;BME280;2967;51.488;6.618;2023-07-16T16:33:11;101018.50;;;23.90;67.02
5883;BME280;2967;51.488;6.618;2023-07-16T16:38:34;101111.22;;;24.43;68.04
5883;BME280;2967;51.488;6.618;2023-07-16T16:44:10;101089.44;;;24.14;69.28
5883;BME280;2967;51.488;6.618;2023-07-16T16:49:33;101126.84;;;24.33;69.79
5883;BME280;2967;51.488;6.618;2023-07-16T16:55:20;100971.63;;;23.44;71.07
5883;BME280;2967;51.488;6.618;2023-07-16T17:00:47;101129.84;;;24.38;70.65
5883;BME280;2967;51.488;6.618;2023-07-16T17:06:15;101029.50;;;23.80;68.80
5883;BME280;2967;51.488;6.618;2023-07-16T17:11:46;101035.75;;;23.81;67.91
5883;BME280;2967;51.488;6.618;2023-07-16T17:17:30;101026.78;;;23.50;69.02
5883;BME280;2967;51.488;6.618;2023-07-16T17:22:58;101128.72;;;24.02;68.97
5883;BME280;2967;51.488;6.618;2023-07-16T17:28:24;101125.19;;;23.94;69.60
5883;BME280;2967;51.488;6.618;2023-07-16T17:33:50;101125.56;;;23.83;71.44
5883;BME280;2967;51.488;6.618;2023-07-16T17:39:13;101161.34;;;23.93;71.58
5883;BME280;2967;51.488;6.618;2023-07-16T17:44:36;101151.38;;;24.01;71.32
5883;BME280;2967;51.488;6.618;2023-07-16T17:50:02;101162.00;;;23.95;72.07
5883;BME280;2967;51.488;6.618;2023-07-16T17:55:26;101142.03;;;23.65;72.33
5883;BME280;2967;51.488;6.618;2023-07-16T18:00:54;101099.22;;;23.38;73.15
5883;BME280;2967;51.488;6.618;2023-07-16T18:06:22;101152.16;;;23.71;72.83
5883;BME280;2967;51.488;6.618;2023-07-16T18:11:47;101137.00;;;23.54;75.42
5883;BME280;2967;51.488;6.618;2023-07-16T18:17:15;101151.81;;;23.58;77.29
5883;BME280;2967;51.488;6.618;2023-07-16T18:22:40;101182.19;;;23.68;78.38
5883;BME280;2967;51.488;6.618;2023-07-16T18:28:03;101164.19;;;23.53;79.70
5883;BME280;2967;51.488;6.618;2023-07-16T18:33:27;101165.41;;;23.34;80.71
5883;BME280;2967;51.488;6.618;2023-07-16T18:38:52;101170.47;;;23.29;81.39
5883;BME280;2967;51.488;6.618;2023-07-16T18:44:15;101166.59;;;23.24;81.48
5883;BME280;2967;51.488;6.618;2023-07-16T18:49:38;101145.16;;;23.06;81.78
5883;BME280;2967;51.488;6.618;2023-07-16T18:55:03;101149.91;;;23.04;82.28
5883;BME280;2967;51.488;6.618;2023-07-16T19:00:29;101147.91;;;22.90;82.77
5883;BME280;2967;51.488;6.618;2023-07-16T19:06:00;101178.56;;;23.05;83.84
5883;BME280;2967;51.488;6.618;2023-07-16T19:11:25;101194.09;;;23.03;83.36
5883;BME280;2967;51.488;6.618;2023-07-16T19:16:48;101185.66;;;22.98;84.09
5883;BME280;2967;51.488;6.618;2023-07-16T19:22:12;101195.78;;;22.96;83.82
5883;BME280;2967;51.488;6.618;2023-07-16T19:27:36;101185.31;;;22.85;84.07
5883;BME280;2967;51.488;6.618;2023-07-16T19:32:59;101209.28;;;22.80;84.69
5883;BME280;2967;51.488;6.618;2023-07-16T19:38:22;101216.34;;;22.73;85.27
5883;BME280;2967;51.488;6.618;2023-07-16T19:43:47;101214.97;;;22.69;85.71
5883;BME280;2967;51.488;6.618;2023-07-16T19:49:11;101232.50;;;22.65;85.90
5883;BME280;2967;51.488;6.618;2023-07-16T19:54:34;101233.16;;;22.59;86.68
5883;BME280;2967;51.488;6.618;2023-07-16T19:59:59;101202.59;;;22.35;87.00
5883;BME280;2967;51.488;6.618;2023-07-16T20:05:22;101235.34;;;22.48;87.56
5883;BME280;2967;51.488;6.618;2023-07-16T20:10:47;101240.72;;;22.48;88.00
5883;BME280;2967;51.488;6.618;2023-07-16T20:16:12;101240.22;;;22.44;88.35
5883;BME280;2967;51.488;6.618;2023-07-16T20:21:35;101235.16;;;22.41;88.63
5883;BME280;2967;51.488;6.618;2023-07-16T20:27:00;101238.81;;;22.32;87.77
5883;BME280;2967;51.488;6.618;2023-07-16T20:32:25;101240.78;;;22.22;88.47
5883;BME280;2967;51.488;6.618;2023-07-16T20:37:54;101200.38;;;21.89;87.98
5883;BME280;2967;51.488;6.618;2023-07-16T20:43:22;101248.81;;;22.14;88.16
5883;BME280;2967;51.488;6.618;2023-07-16T20:48:46;101242.44;;;22.15;88.38
5883;BME280;2967;51.488;6.618;2023-07-16T20:54:10;101252.00;;;22.10;89.06
5883;BME280;2967;51.488;6.618;2023-07-16T20:59:35;101215.19;;;21.85;90.43
5883;BME280;2967;51.488;6.618;2023-07-16T21:04:59;101228.38;;;21.96;90.82
5883;BME280;2967;51.488;6.618;2023-07-16T21:10:24;101225.78;;;21.86;90.35
5883;BME280;2967;51.488;6.618;2023-07-16T21:15:47;101222.56;;;21.58;91.77
5883;BME280;2967;51.488;6.618;2023-07-16T21:21:13;101243.56;;;21.29;93.23
5883;BME280;2967;51.488;6.618;2023-07-16T21:26:37;101226.03;;;21.25;93.68
5883;BME280;2967;51.488;6.618;2023-07-16T21:32:03;101233.31;;;21.50;93.13
5883;BME280;2967;51.488;6.618;2023-07-16T21:37:27;101238.72;;;21.58;93.63
5883;BME280;2967;51.488;6.618;2023-07-16T21:42:51;101193.09;;;20.88;95.29
5883;BME280;2967;51.488;6.618;2023-07-16T21:48:14;101238.41;;;21.35;94.60
5883;BME280;2967;51.488;6.618;2023-07-16T21:53:38;101158.28;;;20.69;94.76
5883;BME280;2967;51.488;6.618;2023-07-16T21:59:02;101208.59;;;21.11;94.40
5883;BME280;2967;51.488;6.618;2023-07-16T22:04:26;101216.13;;;21.08;94.49
5883;BME280;2967;51.488;6.618;2023-07-16T22:09:50;101217.78;;;21.01;93.89
5883;BME280;2967;51.488;6.618;2023-07-16T22:15:13;101286.00;;;21.35;95.18
5883;BME280;2967;51.488;6.618;2023-07-16T22:20:42;101278.19;;;21.24;95.97
5883;BME280;2967;51.488;6.618;2023-07-16T22:26:19;101265.28;;;21.10;100.00
5883;BME280;2967;51.488;6.618;2023-07-16T22:31:43;101247.53;;;20.99;100.00
5883;BME280;2967;51.488;6.618;2023-07-16T22:37:06;101206.22;;;20.56;100.00
5883;BME280;2967;51.488;6.618;2023-07-16T22:42:30;101060.78;;;19.35;100.00
5883;BME280;2967;51.488;6.618;2023-07-16T22:47:55;101240.47;;;20.54;100.00
5883;BME280;2967;51.488;6.618;2023-07-16T22:53:20;101159.41;;;19.60;100.00
5883;BME280;2967;51.488;6.618;2023-07-16T22:58:44;101239.22;;;20.31;100.00
5883;BME280;2967;51.488;6.618;2023-07-16T23:04:07;101225.66;;;20.05;100.00
5883;BME280;2967;51.488;6.618;2023-07-16T23:09:31;101212.16;;;19.42;100.00
5883;BME280;2967;51.488;6.618;2023-07-16T23:14:55;101193.75;;;19.47;100.00
5883;BME280;2967;51.488;6.618;2023-07-16T23:20:19;101239.41;;;19.28;100.00
5883;BME280;2967;51.488;6.618;2023-07-16T23:25:42;101254.94;;;19.15;100.00
5883;BME280;2967;51.488;6.618;2023-07-16T23:31:06;101251.84;;;18.91;100.00
5883;BME280;2967;51.488;6.618;2023-07-16T23:36:30;101264.53;;;19.46;100.00
5883;BME280;2967;51.488;6.618;2023-07-16T23:41:53;101296.13;;;19.71;100.00
5883;BME280;2967;51.488;6.618;2023-07-16T23:47:18;101281.22;;;19.40;100.00
5883;BME280;2967;51.488;6.618;2023-07-16T23:52:44;101328.03;;;19.74;100.00
5883;BME280;2967;51.488;6.618;2023-07-16T23:58:08;101245.59;;;19.38;100.00
